Time;durP1;ratioP1;P1;durP2;ratioP2;P2;SDS_P1;SDS_P2;PMS_P1;PMS_P2;Temp;Humidity;BMP_temperature;BMP_pressure;BME280_temperature;BME280_humidity;BME280_pressure;Samples;Min_cycle;Max_cycle;Signal;HPM_P1;HPM_P2
2022/10/11 00:00:16;;;;;;;7.73;5.50;;;16.60;99.90;;;;;;5042621;28;20186;-70
2022/10/11 00:02:41;;;;;;;7.80;5.90;;;16.60;99.90;;;;;;5055306;28;20217;-70
2022/10/11 00:05:07;;;;;;;7.17;4.90;;;16.60;99.90;;;;;;5037111;28;20452;-70
2022/10/11 00:07:33;;;;;;;7.87;5.63;;;16.60;99.90;;;;;;5055842;28;20582;-70
2022/10/11 00:09:59;;;;;;;7.70;5.97;;;16.50;99.90;;;;;;5055465;28;20531;-70
2022/10/11 00:12:24;;;;;;;6.37;5.47;;;16.50;99.90;;;;;;5055108;28;20204;-70
2022/10/11 00:14:50;;;;;;;7.73;6.00;;;16.40;99.90;;;;;;5053384;28;20195;-70
2022/10/11 00:17:16;;;;;;;7.20;6.50;;;16.40;99.90;;;;;;5054865;28;20172;-70
2022/10/11 00:19:41;;;;;;;9.63;6.30;;;16.30;99.90;;;;;;5055188;28;20254;-70
2022/10/11 00:22:07;;;;;;;8.67;5.83;;;16.30;99.90;;;;;;5054902;28;20190;-70
2022/10/11 00:24:32;;;;;;;9.23;5.70;;;16.20;99.90;;;;;;5054895;28;20170;-70
2022/10/11 00:26:58;;;;;;;7.90;5.20;;;16.00;99.90;;;;;;5054782;28;20199;-70
2022/10/11 00:29:23;;;;;;;6.60;4.90;;;16.00;99.90;;;;;;5054132;28;20197;-70
2022/10/11 00:31:49;;;;;;;5.63;4.77;;;16.00;99.90;;;;;;5054641;28;20169;-70
2022/10/11 00:34:16;;;;;;;7.20;4.77;;;16.00;99.90;;;;;;5054725;28;20190;-70
2022/10/11 00:36:42;;;;;;;11.20;5.07;;;16.00;99.90;;;;;;5054091;28;20170;-70
2022/10/11 00:39:08;;;;;;;7.73;4.83;;;16.00;99.90;;;;;;5054479;28;20505;-70
2022/10/11 00:41:33;;;;;;;6.90;5.10;;;16.00;99.90;;;;;;5036918;28;20167;-70
2022/10/11 00:44:31;;;;;;;8.70;4.93;;;15.90;99.90;;;;;;5054467;28;20180;-70
2022/10/11 00:47:00;;;;;;;7.00;4.83;;;15.80;99.90;;;;;;5042474;28;20188;-70
2022/10/11 00:49:37;;;;;;;13.77;6.50;;;15.70;99.90;;;;;;5054497;28;20439;-70
2022/10/11 00:52:13;;;;;;;7.00;5.60;;;15.60;99.90;;;;;;5054335;28;20460;-70
2022/10/11 00:54:42;;;;;;;7.33;4.60;;;15.60;99.90;;;;;;5054810;28;20957;-69
2022/10/11 00:57:14;;;;;;;9.93;6.97;;;15.60;99.90;;;;;;5054163;28;20411;-69
2022/10/11 00:59:44;;;;;;;6.30;5.40;;;15.60;99.90;;;;;;5053874;28;20931;-69
2022/10/11 01:02:10;;;;;;;6.43;4.93;;;15.50;99.90;;;;;;5054358;28;20395;-70
2022/10/11 01:04:36;;;;;;;10.97;5.27;;;15.50;99.90;;;;;;5054301;28;20414;-69
2022/10/11 01:07:01;;;;;;;11.77;6.70;;;15.40;99.90;;;;;;5054501;28;20404;-69
2022/10/11 01:09:27;;;;;;;8.30;5.97;;;15.40;99.90;;;;;;5053760;28;20556;-69
2022/10/11 01:11:57;;;;;;;10.23;6.57;;;15.30;99.90;;;;;;5053911;28;20172;-69
2022/10/11 01:14:34;;;;;;;10.77;6.30;;;15.40;99.90;;;;;;5052597;28;20450;-69
2022/10/11 01:17:05;;;;;;;15.17;6.70;;;15.40;99.90;;;;;;5053814;28;20382;-69
2022/10/11 01:20:05;;;;;;;8.20;5.90;;;15.30;99.90;;;;;;5053981;28;20728;-71
2022/10/11 01:23:01;;;;;;;6.57;4.90;;;15.20;99.90;;;;;;5053918;28;20480;-69
2022/10/11 01:25:48;;;;;;;8.33;5.33;;;15.10;99.90;;;;;;5053558;28;20385;-69
2022/10/11 01:28:44;;;;;;;8.57;5.60;;;15.20;99.90;;;;;;5052948;28;20428;-69
2022/10/11 01:31:55;;;;;;;8.97;5.10;;;15.30;99.90;;;;;;5053317;28;20382;-69
2022/10/11 01:34:34;;;;;;;9.63;5.30;;;15.20;99.90;;;;;;4991220;28;20994;-69
2022/10/11 01:37:18;;;;;;;7.00;5.80;;;15.20;99.90;;;;;;4991913;28;20405;-69
2022/10/11 01:39:54;;;;;;;10.70;5.60;;;15.20;99.90;;;;;;5022387;28;20427;-69
2022/10/11 01:42:21;;;;;;;9.00;5.80;;;15.10;99.90;;;;;;5033460;28;20890;-69
2022/10/11 01:44:49;;;;;;;11.80;7.80;;;15.10;99.90;;;;;;5033192;28;20421;-69
2022/10/11 01:47:22;;;;;;;9.00;7.07;;;15.10;99.90;;;;;;5032149;28;20409;-69
2022/10/11 01:49:59;;;;;;;8.80;6.77;;;15.10;99.90;;;;;;5047037;28;20440;-69
2022/10/11 01:52:29;;;;;;;11.17;6.83;;;15.10;99.90;;;;;;5053399;28;20438;-69
2022/10/11 01:54:59;;;;;;;8.23;6.43;;;15.00;99.90;;;;;;5052907;28;20449;-69
2022/10/11 01:57:52;;;;;;;12.23;6.77;;;14.90;99.90;;;;;;5052925;28;20397;-69
2022/10/11 02:00:24;;;;;;;7.07;5.40;;;14.90;99.90;;;;;;5052940;28;20775;-69
2022/10/11 02:02:50;;;;;;;7.83;5.93;;;15.00;99.90;;;;;;5053130;28;20455;-69
2022/10/11 02:05:40;;;;;;;6.30;5.63;;;15.00;99.90;;;;;;5052337;28;20418;-69
2022/10/11 02:08:08;;;;;;;9.30;6.87;;;15.00;99.90;;;;;;5052669;28;20287;-69
2022/10/11 02:10:43;;;;;;;10.77;5.70;;;15.00;99.90;;;;;;5052758;28;20914;-69
2022/10/11 02:13:16;;;;;;;10.00;6.10;;;15.00;99.90;;;;;;5034838;28;20522;-69
2022/10/11 02:15:43;;;;;;;8.87;5.83;;;15.00;99.90;;;;;;5051384;28;20428;-69
2022/10/11 02:18:19;;;;;;;7.80;6.23;;;15.00;99.90;;;;;;5052650;28;20468;-69
2022/10/11 02:20:47;;;;;;;11.20;6.93;;;15.00;99.90;;;;;;5052993;28;20451;-69
2022/10/11 02:23:17;;;;;;;9.50;7.57;;;15.00;99.90;;;;;;5051369;28;20441;-69
2022/10/11 02:25:44;;;;;;;9.67;6.83;;;14.90;99.90;;;;;;5052749;28;20497;-69
2022/10/11 02:28:19;;;;;;;10.83;7.97;;;15.00;99.90;;;;;;5052791;28;20517;-69
2022/10/11 02:30:48;;;;;;;8.70;7.07;;;15.00;99.90;;;;;;5053126;28;20812;-69
2022/10/11 02:33:19;;;;;;;8.27;6.63;;;15.00;99.90;;;;;;5053072;28;20475;-69
2022/10/11 02:35:53;;;;;;;10.10;6.53;;;15.00;99.90;;;;;;5053283;28;20473;-69
2022/10/11 02:38:37;;;;;;;10.97;7.63;;;15.20;99.90;;;;;;5050991;28;20812;-69
2022/10/11 02:41:12;;;;;;;10.50;7.53;;;15.30;99.90;;;;;;5046250;28;20434;-69
2022/10/11 02:43:41;;;;;;;8.10;6.87;;;15.30;99.90;;;;;;5052429;28;20383;-69
2022/10/11 02:46:09;;;;;;;8.07;5.63;;;15.40;99.90;;;;;;5052302;28;20460;-69
2022/10/11 02:48:35;;;;;;;15.97;6.93;;;15.50;99.90;;;;;;5052601;28;20439;-69
2022/10/11 02:51:02;;;;;;;11.20;6.83;;;15.50;99.90;;;;;;5051797;28;20423;-70
2022/10/11 02:53:27;;;;;;;11.27;7.93;;;15.60;99.90;;;;;;5052040;28;20525;-69
2022/10/11 02:55:54;;;;;;;7.23;6.20;;;15.60;99.90;;;;;;5052295;28;20408;-69
2022/10/11 02:58:20;;;;;;;12.30;8.03;;;15.60;99.90;;;;;;5053769;28;20187;-69
2022/10/11 03:00:46;;;;;;;9.97;7.43;;;15.60;99.90;;;;;;5054938;28;20791;-69
2022/10/11 03:03:11;;;;;;;8.80;6.20;;;15.60;99.90;;;;;;5056181;28;20396;-69
2022/10/11 03:05:40;;;;;;;12.57;9.70;;;15.60;99.90;;;;;;5056654;28;20218;-69
2022/10/11 03:08:07;;;;;;;19.37;11.60;;;15.60;99.90;;;;;;5055508;28;20205;-69
2022/10/11 03:10:33;;;;;;;13.13;10.53;;;15.60;99.90;;;;;;5056073;28;20443;-69
2022/10/11 03:12:59;;;;;;;13.23;11.67;;;15.60;99.90;;;;;;5056456;28;20752;-69
2022/10/11 03:15:25;;;;;;;13.10;10.93;;;15.70;99.90;;;;;;5054639;28;20474;-69
2022/10/11 03:17:50;;;;;;;14.40;9.47;;;15.80;99.90;;;;;;5056031;28;20190;-69
2022/10/11 03:20:16;;;;;;;21.33;10.73;;;15.90;99.90;;;;;;5056116;28;20173;-69
2022/10/11 03:22:41;;;;;;;13.97;11.07;;;15.90;99.90;;;;;;5056294;28;20256;-69
2022/10/11 03:25:08;;;;;;;13.50;10.60;;;15.90;99.90;;;;;;5054693;28;20186;-69
2022/10/11 03:27:33;;;;;;;11.47;10.23;;;15.90;99.90;;;;;;5055948;28;20696;-69
2022/10/11 03:29:59;;;;;;;15.73;10.87;;;15.90;99.90;;;;;;5055465;28;20452;-69
2022/10/11 03:32:25;;;;;;;12.77;9.93;;;15.90;99.90;;;;;;5055197;28;20528;-69
2022/10/11 03:34:50;;;;;;;13.73;10.40;;;15.90;99.90;;;;;;5055413;28;20490;-69
2022/10/11 03:37:16;;;;;;;18.77;12.10;;;15.80;99.90;;;;;;5055388;28;20650;-69
2022/10/11 03:39:42;;;;;;;10.73;9.13;;;15.90;99.90;;;;;;5055298;28;20536;-69
2022/10/11 03:42:07;;;;;;;11.93;10.20;;;15.90;99.90;;;;;;5055877;28;20170;-69
2022/10/11 03:44:33;;;;;;;13.27;11.97;;;15.90;99.90;;;;;;5055825;28;20522;-69
2022/10/11 03:46:58;;;;;;;18.67;11.97;;;15.90;99.90;;;;;;5055454;28;20225;-69
2022/10/11 03:49:24;;;;;;;18.33;12.97;;;15.90;99.90;;;;;;5055321;28;20198;-68
2022/10/11 03:51:49;;;;;;;14.17;10.70;;;15.90;99.90;;;;;;5053966;28;20260;-69
2022/10/11 03:54:15;;;;;;;12.10;10.43;;;16.00;99.90;;;;;;5055586;28;20196;-69
2022/10/11 03:56:40;;;;;;;20.03;14.23;;;16.00;99.90;;;;;;5055108;28;20169;-69
2022/10/11 03:59:06;;;;;;;14.10;11.43;;;16.10;99.90;;;;;;5055259;28;20200;-69
2022/10/11 04:01:36;;;;;;;16.53;13.03;;;16.20;99.90;;;;;;5054068;28;20553;-69
2022/10/11 04:04:02;;;;;;;17.30;11.87;;;16.20;99.90;;;;;;5055013;28;20150;-69
2022/10/11 04:06:28;;;;;;;14.17;12.67;;;16.20;99.90;;;;;;5054651;28;20404;-69
2022/10/11 04:08:53;;;;;;;18.93;11.97;;;16.30;99.90;;;;;;5054763;28;20202;-69
2022/10/11 04:11:19;;;;;;;15.17;11.90;;;16.30;99.90;;;;;;5054109;28;20172;-69
2022/10/11 04:13:44;;;;;;;17.57;11.83;;;16.40;99.90;;;;;;5054964;28;20197;-69
2022/10/11 04:16:10;;;;;;;151.83;101.67;;;16.40;99.90;;;;;;5053681;28;20232;-70
2022/10/11 04:18:36;;;;;;;203.93;132.80;;;16.30;99.90;;;;;;5036902;28;20197;-70
2022/10/11 04:21:01;;;;;;;40.73;26.43;;;16.30;99.90;;;;;;5054250;28;20275;-69
2022/10/11 04:23:28;;;;;;;67.80;45.43;;;16.40;99.90;;;;;;5036741;28;20185;-69
2022/10/11 04:25:54;;;;;;;428.13;319.27;;;16.40;99.90;;;;;;5054533;28;20588;-69
2022/10/11 04:28:19;;;;;;;33.10;25.40;;;16.50;99.90;;;;;;5054487;28;20428;-69
2022/10/11 04:30:45;;;;;;;39.00;27.93;;;16.40;99.90;;;;;;5053968;28;20171;-69
2022/10/11 04:33:10;;;;;;;37.20;31.30;;;16.30;99.90;;;;;;5054558;28;20173;-69
2022/10/11 04:35:36;;;;;;;34.73;27.73;;;16.40;99.90;;;;;;5036398;28;20258;-69
2022/10/11 04:38:02;;;;;;;28.87;18.83;;;16.30;99.90;;;;;;5054237;28;20267;-69
2022/10/11 04:40:27;;;;;;;31.50;25.63;;;16.20;99.90;;;;;;5054683;28;20206;-69
2022/10/11 04:42:53;;;;;;;34.17;30.57;;;16.30;99.90;;;;;;5054445;28;20201;-69
2022/10/11 04:45:19;;;;;;;43.43;38.97;;;16.20;99.90;;;;;;5053742;28;20248;-71
2022/10/11 04:47:46;;;;;;;29.07;26.10;;;16.10;99.90;;;;;;5054167;28;20196;-69
2022/10/11 04:50:11;;;;;;;18.77;16.60;;;16.20;99.90;;;;;;5054208;28;20944;-70
2022/10/11 04:52:37;;;;;;;24.53;18.07;;;16.40;99.90;;;;;;5054128;28;20456;-70
2022/10/11 04:55:03;;;;;;;22.37;17.13;;;16.50;99.90;;;;;;5054466;28;20668;-70
2022/10/11 04:57:28;;;;;;;18.70;15.83;;;16.50;99.90;;;;;;5054944;28;20268;-70
2022/10/11 04:59:54;;;;;;;18.63;16.17;;;16.50;99.90;;;;;;5054332;28;20663;-70
2022/10/11 05:02:19;;;;;;;31.47;22.70;;;16.50;99.90;;;;;;5054716;28;20621;-70
2022/10/11 05:04:45;;;;;;;24.83;21.90;;;16.40;99.90;;;;;;5054040;28;20248;-70
2022/10/11 05:07:11;;;;;;;21.80;19.60;;;16.50;99.90;;;;;;5054011;28;20174;-69
2022/10/11 05:09:36;;;;;;;24.30;18.93;;;16.50;99.90;;;;;;5053972;28;20182;-70
2022/10/11 05:12:02;;;;;;;23.53;16.63;;;16.40;99.90;;;;;;5053863;28;20182;-70
2022/10/11 05:14:27;;;;;;;23.00;18.70;;;16.40;99.90;;;;;;5053537;28;20201;-70
2022/10/11 05:16:53;;;;;;;22.80;18.70;;;16.40;99.90;;;;;;5052342;28;20190;-70
2022/10/11 05:19:19;;;;;;;27.77;24.20;;;15.90;99.90;;;;;;5035652;28;20198;-70
2022/10/11 05:21:44;;;;;;;30.53;23.43;;;16.00;99.90;;;;;;5052196;28;20177;-68
2022/10/11 05:24:10;;;;;;;23.70;20.80;;;15.90;99.90;;;;;;5053608;28;20663;-70
2022/10/11 05:26:35;;;;;;;38.40;22.93;;;16.00;99.90;;;;;;5053215;28;20522;-70
2022/10/11 05:29:01;;;;;;;34.13;23.23;;;15.90;99.90;;;;;;5053403;28;20197;-70
2022/10/11 05:31:27;;;;;;;30.20;21.73;;;15.90;99.90;;;;;;5052352;28;20272;-70
2022/10/11 05:33:52;;;;;;;28.03;20.87;;;16.10;99.90;;;;;;5039259;28;20205;-70
2022/10/11 05:36:18;;;;;;;26.33;18.90;;;16.10;99.90;;;;;;5033408;28;20234;-70
2022/10/11 05:38:44;;;;;;;27.47;20.70;;;15.90;99.90;;;;;;5033399;28;20222;-70
2022/10/11 05:41:12;;;;;;;20.87;18.57;;;15.90;99.90;;;;;;5033879;28;20263;-70
2022/10/11 05:43:38;;;;;;;24.50;18.97;;;16.00;99.90;;;;;;5052652;28;20687;-70
2022/10/11 05:46:04;;;;;;;22.50;18.00;;;15.80;99.90;;;;;;5052872;28;20446;-70
2022/10/11 05:48:29;;;;;;;29.57;22.30;;;15.90;99.90;;;;;;5053149;28;20197;-70
2022/10/11 05:50:59;;;;;;;28.90;20.73;;;16.10;99.90;;;;;;5053383;28;20178;-70
2022/10/11 05:53:25;;;;;;;28.67;19.17;;;16.20;99.90;;;;;;5053141;28;20190;-70
2022/10/11 05:55:51;;;;;;;25.83;19.33;;;16.10;99.90;;;;;;5053522;28;20759;-69
2022/10/11 05:58:17;;;;;;;30.57;20.53;;;16.00;99.90;;;;;;5034679;28;20454;-69
2022/10/11 06:00:43;;;;;;;23.43;18.80;;;16.10;99.90;;;;;;5051576;28;20177;-69
2022/10/11 06:03:11;;;;;;;27.07;20.60;;;16.10;99.90;;;;;;5052797;28;20899;-69
2022/10/11 06:05:37;;;;;;;23.00;19.63;;;15.90;99.90;;;;;;5052848;28;20617;-69
2022/10/11 06:08:04;;;;;;;23.70;18.57;;;16.00;99.90;;;;;;5074540;22;20811;-71
2022/10/11 06:10:31;;;;;;;24.37;19.73;;;15.90;99.90;;;;;;5083035;28;20476;-70
2022/10/11 06:12:56;;;;;;;24.90;19.20;;;15.90;99.90;;;;;;5092718;28;20410;-71
2022/10/11 06:15:22;;;;;;;23.20;17.50;;;15.80;99.90;;;;;;5095408;28;20470;-71
2022/10/11 06:17:48;;;;;;;24.13;18.10;;;15.80;99.90;;;;;;5113327;28;20191;-70
2022/10/11 06:20:13;;;;;;;34.00;23.60;;;15.80;99.90;;;;;;5113650;28;20230;-71
2022/10/11 06:22:39;;;;;;;34.67;22.57;;;15.90;99.90;;;;;;5111945;28;20257;-71
2022/10/11 06:25:06;;;;;;;23.87;18.13;;;15.70;99.90;;;;;;5095917;28;20175;-70
2022/10/11 06:27:31;;;;;;;25.77;17.13;;;15.60;99.90;;;;;;5114441;28;20564;-71
2022/10/11 06:29:57;;;;;;;29.90;19.60;;;15.60;99.90;;;;;;5112189;28;20410;-72
2022/10/11 06:32:22;;;;;;;27.33;19.30;;;15.70;99.90;;;;;;5113116;28;20243;-71
2022/10/11 06:34:48;;;;;;;23.67;18.37;;;15.50;99.90;;;;;;5117271;28;20482;-70
2022/10/11 06:37:14;;;;;;;23.67;17.30;;;15.60;99.90;;;;;;5117225;28;20193;-71
2022/10/11 06:39:39;;;;;;;32.53;19.50;;;15.50;99.90;;;;;;5117826;28;20184;-71
2022/10/11 06:42:05;;;;;;;22.30;16.40;;;15.60;99.90;;;;;;5117980;28;20193;-71
2022/10/11 06:44:31;;;;;;;23.10;16.77;;;15.50;99.90;;;;;;5117602;28;20247;-71
2022/10/11 06:46:56;;;;;;;24.93;16.20;;;15.60;99.90;;;;;;5117038;28;20180;-71
2022/10/11 06:49:22;;;;;;;24.83;19.10;;;15.60;99.90;;;;;;5117311;28;20291;-71
2022/10/11 06:51:47;;;;;;;22.97;17.00;;;15.80;99.90;;;;;;5117507;28;20177;-72
2022/10/11 06:54:13;;;;;;;20.40;16.00;;;15.60;99.90;;;;;;5117829;28;20183;-70
2022/10/11 06:56:39;;;;;;;22.47;17.47;;;15.70;99.90;;;;;;5117501;28;20254;-71
2022/10/11 06:59:05;;;;;;;21.23;18.60;;;15.40;99.90;;;;;;5117458;28;20194;-71
2022/10/11 07:01:31;;;;;;;19.30;17.00;;;15.50;99.90;;;;;;5117020;28;20414;-71
2022/10/11 07:03:57;;;;;;;21.43;16.87;;;15.60;99.90;;;;;;5117404;28;20169;-70
2022/10/11 07:06:26;;;;;;;24.17;15.27;;;15.40;99.90;;;;;;5117095;28;20951;-70
2022/10/11 07:08:52;;;;;;;22.90;17.00;;;15.30;99.90;;;;;;5117376;28;20470;-71
2022/10/11 07:11:20;;;;;;;16.80;13.17;;;15.40;99.90;;;;;;5116854;28;20501;-71
2022/10/11 07:13:52;;;;;;;20.67;14.73;;;15.70;99.90;;;;;;5117427;28;20468;-71
2022/10/11 07:16:18;;;;;;;17.80;15.90;;;16.00;99.90;;;;;;5115363;28;20504;-70
2022/10/11 07:18:45;;;;;;;25.00;15.70;;;16.10;99.90;;;;;;5116929;28;20464;-71
2022/10/11 07:21:14;;;;;;;18.50;15.77;;;16.20;99.90;;;;;;5116954;28;20962;-72
2022/10/11 07:23:40;;;;;;;25.10;16.73;;;16.40;99.90;;;;;;5117263;28;20406;-70
2022/10/11 07:26:07;;;;;;;17.63;14.93;;;16.40;99.90;;;;;;5115570;28;20559;-72
2022/10/11 07:28:34;;;;;;;15.97;14.30;;;16.10;99.90;;;;;;5116892;28;20440;-72
2022/10/11 07:31:05;;;;;;;18.43;14.70;;;16.00;99.90;;;;;;5116050;28;20939;-71
2022/10/11 07:33:31;;;;;;;23.40;17.37;;;16.20;99.90;;;;;;5116516;28;20433;-72
2022/10/11 07:35:57;;;;;;;21.10;16.43;;;16.40;99.90;;;;;;5116527;28;20411;-71
2022/10/11 07:38:22;;;;;;;26.77;18.80;;;16.20;99.90;;;;;;5098116;28;20193;-71
2022/10/11 07:40:48;;;;;;;24.03;17.13;;;16.20;99.90;;;;;;5097919;28;20938;-72
2022/10/11 07:43:14;;;;;;;24.67;16.50;;;16.40;99.90;;;;;;5116477;28;20224;-71
2022/10/11 07:45:41;;;;;;;22.80;14.90;;;16.20;99.90;;;;;;5114403;28;20170;-71
2022/10/11 07:48:07;;;;;;;21.53;15.27;;;16.30;99.90;;;;;;5107944;28;20612;-71
2022/10/11 07:50:33;;;;;;;26.07;17.30;;;16.40;99.90;;;;;;5095690;28;20435;-71
2022/10/11 07:52:59;;;;;;;20.07;14.40;;;16.20;99.90;;;;;;5095612;28;20398;-72
2022/10/11 07:55:26;;;;;;;22.17;16.23;;;16.20;99.90;;;;;;5096103;28;20483;-71
2022/10/11 07:57:53;;;;;;;21.97;17.20;;;16.20;99.90;;;;;;5095565;28;20197;-71
2022/10/11 08:00:19;;;;;;;22.00;16.73;;;16.20;99.90;;;;;;5095414;28;20400;-71
2022/10/11 08:02:45;;;;;;;19.60;15.10;;;16.30;99.90;;;;;;5095304;28;20448;-71
2022/10/11 08:05:10;;;;;;;19.83;15.47;;;16.20;99.90;;;;;;5095152;28;20643;-72
2022/10/11 08:07:36;;;;;;;25.47;17.33;;;16.10;99.90;;;;;;5095150;28;20303;-72
2022/10/11 08:10:03;;;;;;;19.37;15.23;;;16.00;99.90;;;;;;5094952;28;20192;-72
2022/10/11 08:12:29;;;;;;;21.57;15.73;;;16.00;99.90;;;;;;5095681;28;20183;-72
2022/10/11 08:14:55;;;;;;;18.83;15.40;;;16.20;99.90;;;;;;5095457;28;20446;-72
2022/10/11 08:17:20;;;;;;;24.33;16.10;;;16.10;99.90;;;;;;5093540;28;20219;-72
2022/10/11 08:19:46;;;;;;;19.57;16.50;;;16.10;99.90;;;;;;5116187;28;20991;-72
2022/10/11 08:22:11;;;;;;;21.07;16.50;;;15.90;99.90;;;;;;5116432;28;20160;-70
2022/10/11 08:24:37;;;;;;;18.80;15.00;;;16.00;99.90;;;;;;5115835;28;20638;-71
2022/10/11 08:27:02;;;;;;;22.93;16.17;;;16.20;99.90;;;;;;5115426;28;20179;-72
2022/10/11 08:29:28;;;;;;;23.20;15.97;;;16.20;99.90;;;;;;5115243;28;20216;-72
2022/10/11 08:31:54;;;;;;;21.90;16.33;;;16.20;99.90;;;;;;5115076;28;20172;-72
2022/10/11 08:34:19;;;;;;;23.23;17.00;;;16.20;99.90;;;;;;5115293;28;20189;-72
2022/10/11 08:36:47;;;;;;;19.13;17.10;;;16.10;99.90;;;;;;5115267;28;20163;-72
2022/10/11 08:39:12;;;;;;;24.57;18.80;;;15.90;99.90;;;;;;5115402;28;20191;-72
2022/10/11 08:41:47;;;;;;;25.20;20.10;;;15.90;99.90;;;;;;5114739;28;20410;-72
2022/10/11 08:44:36;;;;;;;23.13;17.27;;;16.00;99.90;;;;;;5115507;28;20540;-72
2022/10/11 08:47:11;;;;;;;22.47;16.83;;;16.00;99.90;;;;;;5114742;28;20950;-71
2022/10/11 08:49:37;;;;;;;22.80;18.90;;;15.70;99.90;;;;;;5114928;28;20433;-72
2022/10/11 08:52:11;;;;;;;22.30;16.77;;;15.60;99.90;;;;;;5110848;28;20498;-72
2022/10/11 08:54:43;;;;;;;20.30;16.60;;;15.80;99.90;;;;;;5071893;28;20458;-72
2022/10/11 08:57:19;;;;;;;22.40;18.37;;;16.00;99.90;;;;;;5093833;28;20389;-72
2022/10/11 09:00:05;;;;;;;25.57;18.87;;;15.90;99.90;;;;;;5076870;28;20526;-72
2022/10/11 09:02:33;;;;;;;25.97;18.77;;;16.00;99.90;;;;;;5076675;28;20405;-73
2022/10/11 09:05:01;;;;;;;25.93;19.97;;;15.90;99.90;;;;;;5094960;28;20779;-72
2022/10/11 09:07:48;;;;;;;30.70;19.13;;;15.90;99.90;;;;;;5095437;28;20516;-72
2022/10/11 09:10:25;;;;;;;22.70;18.57;;;15.70;99.90;;;;;;5095094;28;20411;-71
2022/10/11 09:13:18;;;;;;;26.20;18.33;;;15.70;99.90;;;;;;5094992;28;20387;-72
2022/10/11 09:16:26;;;;;;;21.80;17.63;;;15.70;99.90;;;;;;5096847;28;20421;-72
2022/10/11 09:19:19;;;;;;;28.07;21.97;;;15.90;99.90;;;;;;5114529;28;20414;-71
2022/10/11 09:22:08;;;;;;;25.03;18.57;;;16.30;99.90;;;;;;5114632;28;20402;-72
2022/10/11 09:24:57;;;;;;;20.00;17.77;;;16.20;99.90;;;;;;5115202;28;20428;-71
2022/10/11 09:27:35;;;;;;;26.87;19.53;;;16.30;99.90;;;;;;5114577;28;20472;-71
2022/10/11 09:30:11;;;;;;;30.43;19.80;;;16.30;99.90;;;;;;5114479;28;20714;-71
2022/10/11 09:32:46;;;;;;;31.07;21.47;;;16.20;99.90;;;;;;5114209;28;20393;-70
2022/10/11 09:35:16;;;;;;;22.90;18.40;;;16.00;99.90;;;;;;5115094;28;20421;-71
2022/10/11 09:37:51;;;;;;;28.73;20.10;;;15.90;99.90;;;;;;5096472;28;20414;-71
2022/10/11 09:40:43;;;;;;;23.30;18.70;;;15.60;99.90;;;;;;5096941;28;20899;-71
2022/10/11 09:43:09;;;;;;;24.70;19.07;;;15.60;99.90;;;;;;5104475;28;20398;-71
2022/10/11 09:45:35;;;;;;;28.53;18.63;;;15.70;99.90;;;;;;5094279;28;20406;-72
2022/10/11 09:48:04;;;;;;;25.27;16.50;;;15.80;99.90;;;;;;5113641;28;20436;-71
2022/10/11 09:50:31;;;;;;;23.07;18.63;;;15.70;99.90;;;;;;5113971;28;20164;-71
2022/10/11 09:53:00;;;;;;;29.50;20.13;;;15.80;99.90;;;;;;5114131;28;20410;-71
2022/10/11 09:55:42;;;;;;;30.73;18.83;;;15.90;99.90;;;;;;5113753;28;20479;-71
2022/10/11 09:58:33;;;;;;;27.00;18.73;;;16.20;99.90;;;;;;5114170;28;20971;-71
2022/10/11 10:01:04;;;;;;;33.07;20.27;;;16.20;99.90;;;;;;5114691;28;20868;-71
2022/10/11 10:03:39;;;;;;;24.30;18.73;;;16.00;99.90;;;;;;5113268;28;20403;-71
2022/10/11 10:06:16;;;;;;;23.23;18.53;;;16.30;99.90;;;;;;5114179;28;20503;-72
2022/10/11 10:08:44;;;;;;;25.63;19.30;;;16.10;99.90;;;;;;5113120;28;20848;-72
2022/10/11 10:11:10;;;;;;;27.03;18.77;;;16.20;99.90;;;;;;5114056;28;20405;-72
2022/10/11 10:13:40;;;;;;;23.70;19.03;;;16.00;99.90;;;;;;5113613;28;20528;-72
2022/10/11 10:16:17;;;;;;;23.43;17.00;;;16.00;99.90;;;;;;5112770;28;20789;-72
2022/10/11 10:18:58;;;;;;;23.10;17.50;;;16.30;99.90;;;;;;5113255;28;20425;-72
2022/10/11 10:21:36;;;;;;;21.73;17.17;;;16.20;99.90;;;;;;5114153;28;20459;-72
2022/10/11 10:24:08;;;;;;;23.20;17.63;;;16.10;99.90;;;;;;5113641;28;20439;-71
2022/10/11 10:26:34;;;;;;;31.87;19.20;;;16.30;99.90;;;;;;5113369;28;20424;-72
2022/10/11 10:29:08;;;;;;;28.50;19.30;;;16.50;99.90;;;;;;5112056;28;20438;-70
2022/10/11 10:31:34;;;;;;;25.87;16.97;;;16.50;99.90;;;;;;5112994;28;20661;-71
2022/10/11 10:34:01;;;;;;;21.07;15.90;;;16.70;99.90;;;;;;5113465;28;20559;-71
2022/10/11 10:36:35;;;;;;;28.80;18.27;;;16.70;99.90;;;;;;5113591;28;20760;-73
2022/10/11 10:39:23;;;;;;;31.30;18.80;;;16.70;99.90;;;;;;5112025;28;20821;-71
2022/10/11 10:41:49;;;;;;;23.70;17.30;;;16.90;99.90;;;;;;5112996;28;20404;-71
2022/10/11 10:44:14;;;;;;;27.00;18.40;;;17.10;99.90;;;;;;5113192;28;20493;-71
2022/10/11 10:46:52;;;;;;;23.00;16.97;;;17.10;99.90;;;;;;5111561;28;20259;-71
2022/10/11 10:49:41;;;;;;;22.00;17.20;;;17.00;99.90;;;;;;5113262;28;20202;-71
2022/10/11 10:52:27;;;;;;;21.23;17.50;;;16.80;99.90;;;;;;5112038;28;20421;-72
2022/10/11 10:55:21;;;;;;;20.47;15.97;;;16.90;99.90;;;;;;5113508;28;20441;-72
2022/10/11 10:58:09;;;;;;;18.73;15.97;;;16.70;99.90;;;;;;5111769;28;20978;-71
2022/10/11 11:00:47;;;;;;;22.73;16.03;;;16.70;99.90;;;;;;5113359;28;20367;-71
2022/10/11 11:03:24;;;;;;;21.43;16.03;;;16.90;99.90;;;;;;5113596;28;20374;-71
2022/10/11 11:06:04;;;;;;;31.00;17.57;;;16.90;99.90;;;;;;5096304;28;20750;-72
2022/10/11 11:09:01;;;;;;;23.57;16.80;;;17.20;99.90;;;;;;5113290;28;20454;-72
2022/10/11 11:11:29;;;;;;;25.80;16.87;;;17.40;99.90;;;;;;5113024;28;20379;-71
2022/10/11 11:14:10;;;;;;;26.20;16.03;;;17.40;99.90;;;;;;5113443;28;20446;-72
2022/10/11 11:16:59;;;;;;;22.57;15.97;;;17.20;99.90;;;;;;5111319;28;20418;-72
2022/10/11 11:20:19;;;;;;;22.40;14.80;;;17.20;99.90;;;;;;5115352;28;20491;-72
2022/10/11 11:22:58;;;;;;;24.97;16.73;;;17.20;99.90;;;;;;5014425;28;20407;-72
2022/10/11 11:25:34;;;;;;;21.20;16.30;;;16.60;99.90;;;;;;5014407;28;20398;-71
2022/10/11 11:28:18;;;;;;;19.50;15.33;;;16.80;99.90;;;;;;5089277;28;20444;-69
2022/10/11 11:31:20;;;;;;;17.53;15.00;;;17.30;99.90;;;;;;5117524;28;20378;-72
2022/10/11 11:33:57;;;;;;;18.47;14.50;;;17.10;99.90;;;;;;5098474;28;20445;-70
2022/10/11 11:36:55;;;;;;;20.30;16.50;;;17.20;99.90;;;;;;5094606;28;20875;-70
2022/10/11 11:39:29;;;;;;;20.50;14.80;;;17.50;99.90;;;;;;5085557;28;20518;-71
2022/10/11 11:42:06;;;;;;;20.07;15.40;;;17.50;99.90;;;;;;5096324;28;20403;-71
2022/10/11 11:44:37;;;;;;;25.00;19.20;;;17.40;99.90;;;;;;5078147;28;20383;-71
2022/10/11 11:47:10;;;;;;;27.10;16.07;;;17.50;99.90;;;;;;5089540;28;20444;-71
2022/10/11 11:49:40;;;;;;;17.70;14.57;;;17.80;99.90;;;;;;5096066;28;20421;-72
2022/10/11 11:52:12;;;;;;;20.50;15.80;;;17.90;99.90;;;;;;5077755;28;20419;-71
2022/10/11 11:54:50;;;;;;;31.20;19.57;;;17.90;99.90;;;;;;5096153;28;20431;-71
2022/10/11 11:57:59;;;;;;;19.27;15.37;;;17.40;99.90;;;;;;5095854;28;20490;-71
2022/10/11 12:00:39;;;;;;;21.07;14.97;;;17.60;99.90;;;;;;5095853;28;20380;-71
2022/10/11 12:03:22;;;;;;;15.70;14.00;;;17.80;99.90;;;;;;5095151;28;20386;-71
2022/10/11 12:06:13;;;;;;;35.67;26.93;;;17.90;99.90;;;;;;5095901;28;20391;-72
2022/10/11 12:09:05;;;;;;;50.37;41.03;;;17.80;99.90;;;;;;5089208;22;20492;-69
2022/10/11 12:11:41;;;;;;;17.80;13.93;;;17.80;99.90;;;;;;5055067;28;20409;-69
2022/10/11 12:14:35;;;;;;;19.00;15.07;;;17.80;99.90;;;;;;5054956;28;20433;-69
2022/10/11 12:17:05;;;;;;;15.80;11.63;;;17.90;99.90;;;;;;5052836;28;20430;-69
2022/10/11 12:19:31;;;;;;;17.53;13.50;;;18.30;99.90;;;;;;5068003;28;20463;-70
2022/10/11 12:22:15;;;;;;;20.27;17.90;;;18.10;99.90;;;;;;5075080;28;20404;-70
2022/10/11 12:25:08;;;;;;;21.07;18.90;;;18.20;99.90;;;;;;5075004;28;20170;-70
2022/10/11 12:27:57;;;;;;;16.73;12.40;;;18.20;99.90;;;;;;5074662;28;20889;-69
2022/10/11 12:30:49;;;;;;;19.10;14.53;;;18.10;99.90;;;;;;5074898;28;20452;-70
2022/10/11 12:33:15;;;;;;;16.43;13.60;;;17.90;99.90;;;;;;5074502;28;20413;-70
2022/10/11 12:36:01;;;;;;;29.30;26.60;;;17.80;99.90;;;;;;5074821;28;20408;-70
2022/10/11 12:38:29;;;;;;;22.60;16.87;;;17.60;99.90;;;;;;5074889;28;20186;-70
2022/10/11 12:41:24;;;;;;;26.90;18.67;;;17.40;99.90;;;;;;5074634;28;20467;-70
2022/10/11 12:43:50;;;;;;;18.93;14.03;;;17.30;99.90;;;;;;5074680;28;20419;-70
2022/10/11 12:46:28;;;;;;;14.23;12.60;;;17.50;99.90;;;;;;5074084;28;20774;-70
2022/10/11 12:49:31;;;;;;;17.37;12.70;;;17.40;99.90;;;;;;5073721;28;20796;-70
2022/10/11 12:52:16;;;;;;;15.83;13.03;;;17.30;99.90;;;;;;5073788;28;20906;-70